sensor_id;sensor_type;location;lat;lon;timestamp;temperature;humidity
1129;DHT22;553;51.038;7.216;2024-02-15T00:00:37;12.00;99.90
1129;DHT22;553;51.038;7.216;2024-02-15T00:03:05;12.00;99.90
1129;DHT22;553;51.038;7.216;2024-02-15T00:05:52;12.00;99.90
1129;DHT22;553;51.038;7.216;2024-02-15T00:08:19;12.00;99.90
1129;DHT22;553;51.038;7.216;2024-02-15T00:10:47;12.00;99.90
1129;DHT22;553;51.038;7.216;2024-02-15T00:13:14;12.00;99.90
1129;DHT22;553;51.038;7.216;2024-02-15T00:15:41;12.00;99.90
1129;DHT22;553;51.038;7.216;2024-02-15T00:18:08;12.00;99.90
1129;DHT22;553;51.038;7.216;2024-02-15T00:20:35;12.00;99.90
1129;DHT22;553;51.038;7.216;2024-02-15T00:23:02;12.00;99.90
1129;DHT22;553;51.038;7.216;2024-02-15T00:25:29;12.00;99.90
1129;DHT22;553;51.038;7.216;2024-02-15T00:27:57;12.00;99.90
1129;DHT22;553;51.038;7.216;2024-02-15T00:30:26;12.00;99.90
1129;DHT22;553;51.038;7.216;2024-02-15T00:32:54;12.00;99.90
1129;DHT22;553;51.038;7.216;2024-02-15T00:35:21;12.00;99.90
1129;DHT22;553;51.038;7.216;2024-02-15T00:37:49;12.00;99.90
1129;DHT22;553;51.038;7.216;2024-02-15T00:40:17;12.00;99.90
1129;DHT22;553;51.038;7.216;2024-02-15T00:42:43;12.00;99.90
1129;DHT22;553;51.038;7.216;2024-02-15T00:45:11;12.00;99.90
1129;DHT22;553;51.038;7.216;2024-02-15T00:47:39;12.00;99.90
1129;DHT22;553;51.038;7.216;2024-02-15T00:50:09;12.00;99.90
1129;DHT22;553;51.038;7.216;2024-02-15T00:52:37;11.90;99.90
1129;DHT22;553;51.038;7.216;2024-02-15T00:55:04;11.90;99.90
1129;DHT22;553;51.038;7.216;2024-02-15T00:57:31;12.00;99.90
1129;DHT22;553;51.038;7.216;2024-02-15T00:59:58;12.00;99.90
1129;DHT22;553;51.038;7.216;2024-02-15T01:02:26;12.00;99.90
1129;DHT22;553;51.038;7.216;2024-02-15T01:04:54;12.00;99.90
1129;DHT22;553;51.038;7.216;2024-02-15T01:07:25;12.10;99.90
1129;DHT22;553;51.038;7.216;2024-02-15T01:09:54;12.00;99.90
1129;DHT22;553;51.038;7.216;2024-02-15T01:12:21;12.00;99.90
1129;DHT22;553;51.038;7.216;2024-02-15T01:14:48;12.10;99.90
1129;DHT22;553;51.038;7.216;2024-02-15T01:17:16;12.10;99.90
1129;DHT22;553;51.038;7.216;2024-02-15T01:19:43;12.10;99.90
1129;DHT22;553;51.038;7.216;2024-02-15T01:22:10;12.20;99.90
1129;DHT22;553;51.038;7.216;2024-02-15T01:24:37;12.10;99.90
1129;DHT22;553;51.038;7.216;2024-02-15T01:27:04;12.10;99.90
1129;DHT22;553;51.038;7.216;2024-02-15T01:29:32;12.10;99.90
1129;DHT22;553;51.038;7.216;2024-02-15T01:31:59;12.00;99.90
1129;DHT22;553;51.038;7.216;2024-02-15T01:34:26;12.00;99.90
1129;DHT22;553;51.038;7.216;2024-02-15T01:36:54;12.00;99.90
1129;DHT22;553;51.038;7.216;2024-02-15T01:39:21;12.00;99.90
1129;DHT22;553;51.038;7.216;2024-02-15T01:41:48;11.90;99.90
1129;DHT22;553;51.038;7.216;2024-02-15T01:44:22;11.90;99.90
1129;DHT22;553;51.038;7.216;2024-02-15T01:46:51;11.80;99.90
1129;DHT22;553;51.038;7.216;2024-02-15T01:49:22;11.90;99.90
1129;DHT22;553;51.038;7.216;2024-02-15T01:51:54;11.90;99.90
1129;DHT22;553;51.038;7.216;2024-02-15T01:54:23;11.90;99.90
1129;DHT22;553;51.038;7.216;2024-02-15T01:56:51;11.90;99.90
1129;DHT22;553;51.038;7.216;2024-02-15T01:59:18;11.90;99.90
1129;DHT22;553;51.038;7.216;2024-02-15T02:01:46;12.00;99.90
1129;DHT22;553;51.038;7.216;2024-02-15T02:04:13;11.90;99.90
1129;DHT22;553;51.038;7.216;2024-02-15T02:06:40;12.00;99.90
1129;DHT22;553;51.038;7.216;2024-02-15T02:09:11;12.00;99.90
1129;DHT22;553;51.038;7.216;2024-02-15T02:11:42;12.00;99.90
1129;DHT22;553;51.038;7.216;2024-02-15T02:14:11;12.00;99.90
1129;DHT22;553;51.038;7.216;2024-02-15T02:16:38;12.00;99.90
1129;DHT22;553;51.038;7.216;2024-02-15T02:19:06;12.00;99.90
1129;DHT22;553;51.038;7.216;2024-02-15T02:21:36;12.00;99.90
1129;DHT22;553;51.038;7.216;2024-02-15T02:24:14;12.00;99.90
1129;DHT22;553;51.038;7.216;2024-02-15T02:26:48;12.00;99.90
1129;DHT22;553;51.038;7.216;2024-02-15T02:29:16;11.90;99.90
1129;DHT22;553;51.038;7.216;2024-02-15T02:31:43;12.00;99.90
1129;DHT22;553;51.038;7.216;2024-02-15T02:34:10;11.90;99.90
1129;DHT22;553;51.038;7.216;2024-02-15T02:36:37;11.80;99.90
1129;DHT22;553;51.038;7.216;2024-02-15T02:39:04;11.80;99.90
1129;DHT22;553;51.038;7.216;2024-02-15T02:41:31;11.80;99.90
1129;DHT22;553;51.038;7.216;2024-02-15T02:43:59;11.80;99.90
1129;DHT22;553;51.038;7.216;2024-02-15T02:46:26;11.90;99.90
1129;DHT22;553;51.038;7.216;2024-02-15T02:48:52;11.90;99.90
1129;DHT22;553;51.038;7.216;2024-02-15T02:51:20;12.00;99.90
1129;DHT22;553;51.038;7.216;2024-02-15T02:53:46;12.00;99.90
1129;DHT22;553;51.038;7.216;2024-02-15T02:56:14;11.90;99.90
1129;DHT22;553;51.038;7.216;2024-02-15T02:58:40;11.90;99.90
1129;DHT22;553;51.038;7.216;2024-02-15T03:01:10;11.90;99.90
1129;DHT22;553;51.038;7.216;2024-02-15T03:03:38;11.90;99.90
1129;DHT22;553;51.038;7.216;2024-02-15T03:06:06;11.90;99.90
1129;DHT22;553;51.038;7.216;2024-02-15T03:08:33;11.90;99.90
1129;DHT22;553;51.038;7.216;2024-02-15T03:11:01;11.90;99.90
1129;DHT22;553;51.038;7.216;2024-02-15T03:13:29;11.90;99.90
1129;DHT22;553;51.038;7.216;2024-02-15T03:15:56;12.00;99.90
1129;DHT22;553;51.038;7.216;2024-02-15T03:18:22;12.00;99.90
1129;DHT22;553;51.038;7.216;2024-02-15T03:20:50;12.00;99.90
1129;DHT22;553;51.038;7.216;2024-02-15T03:23:17;12.00;99.90
1129;DHT22;553;51.038;7.216;2024-02-15T03:25:44;12.00;99.90
1129;DHT22;553;51.038;7.216;2024-02-15T03:28:11;12.10;99.90
1129;DHT22;553;51.038;7.216;2024-02-15T03:30:38;12.00;99.90
1129;DHT22;553;51.038;7.216;2024-02-15T03:33:05;12.00;99.90
1129;DHT22;553;51.038;7.216;2024-02-15T03:35:34;12.00;99.90
1129;DHT22;553;51.038;7.216;2024-02-15T03:38:01;12.10;99.90
1129;DHT22;553;51.038;7.216;2024-02-15T03:40:28;12.10;99.90
1129;DHT22;553;51.038;7.216;2024-02-15T03:42:57;12.10;99.90
1129;DHT22;553;51.038;7.216;2024-02-15T03:45:24;12.00;99.90
1129;DHT22;553;51.038;7.216;2024-02-15T03:47:54;12.10;99.90
1129;DHT22;553;51.038;7.216;2024-02-15T03:50:23;12.10;99.90
1129;DHT22;553;51.038;7.216;2024-02-15T03:52:50;12.10;99.90
1129;DHT22;553;51.038;7.216;2024-02-15T03:55:17;12.00;99.90
1129;DHT22;553;51.038;7.216;2024-02-15T03:57:45;12.00;99.90
1129;DHT22;553;51.038;7.216;2024-02-15T04:00:13;12.00;99.90
1129;DHT22;553;51.038;7.216;2024-02-15T04:02:49;12.00;99.90
1129;DHT22;553;51.038;7.216;2024-02-15T04:05:17;11.90;99.90
1129;DHT22;553;51.038;7.216;2024-02-15T04:07:45;12.00;99.90
1129;DHT22;553;51.038;7.216;2024-02-15T04:10:12;12.00;99.90
1129;DHT22;553;51.038;7.216;2024-02-15T04:12:40;11.90;99.90
1129;DHT22;553;51.038;7.216;2024-02-15T04:15:10;11.90;99.90
1129;DHT22;553;51.038;7.216;2024-02-15T04:17:43;12.00;99.90
1129;DHT22;553;51.038;7.216;2024-02-15T04:20:11;12.00;99.90
1129;DHT22;553;51.038;7.216;2024-02-15T04:22:41;12.00;99.90
1129;DHT22;553;51.038;7.216;2024-02-15T04:25:10;12.10;99.90
1129;DHT22;553;51.038;7.216;2024-02-15T04:27:38;12.00;99.90
1129;DHT22;553;51.038;7.216;2024-02-15T04:30:05;12.00;99.90
1129;DHT22;553;51.038;7.216;2024-02-15T04:32:34;12.10;99.90
1129;DHT22;553;51.038;7.216;2024-02-15T04:35:03;12.10;99.90
1129;DHT22;553;51.038;7.216;2024-02-15T04:37:33;12.20;99.90
1129;DHT22;553;51.038;7.216;2024-02-15T04:40:01;12.10;99.90
1129;DHT22;553;51.038;7.216;2024-02-15T04:42:38;12.00;99.90
1129;DHT22;553;51.038;7.216;2024-02-15T04:45:09;12.00;99.90
1129;DHT22;553;51.038;7.216;2024-02-15T04:47:39;12.10;99.90
1129;DHT22;553;51.038;7.216;2024-02-15T04:50:12;12.00;99.90
1129;DHT22;553;51.038;7.216;2024-02-15T04:52:39;12.10;99.90
1129;DHT22;553;51.038;7.216;2024-02-15T04:55:06;12.10;99.90
1129;DHT22;553;51.038;7.216;2024-02-15T04:57:33;12.00;99.90
1129;DHT22;553;51.038;7.216;2024-02-15T05:00:02;12.00;99.90
1129;DHT22;553;51.038;7.216;2024-02-15T05:02:35;12.00;99.90
1129;DHT22;553;51.038;7.216;2024-02-15T05:05:07;12.00;99.90
1129;DHT22;553;51.038;7.216;2024-02-15T05:07:34;12.00;99.90
1129;DHT22;553;51.038;7.216;2024-02-15T05:10:07;12.00;99.90
1129;DHT22;553;51.038;7.216;2024-02-15T05:12:37;12.00;99.90
1129;DHT22;553;51.038;7.216;2024-02-15T05:15:05;12.00;99.90
1129;DHT22;553;51.038;7.216;2024-02-15T05:17:39;12.00;99.90
1129;DHT22;553;51.038;7.216;2024-02-15T05:20:08;12.00;99.90
1129;DHT22;553;51.038;7.216;2024-02-15T05:22:39;12.10;99.90
1129;DHT22;553;51.038;7.216;2024-02-15T05:25:06;12.10;99.90
1129;DHT22;553;51.038;7.216;2024-02-15T05:27:34;12.10;99.90
1129;DHT22;553;51.038;7.216;2024-02-15T05:30:04;12.10;99.90
1129;DHT22;553;51.038;7.216;2024-02-15T05:32:34;12.20;99.90
1129;DHT22;553;51.038;7.216;2024-02-15T05:35:09;12.20;99.90
1129;DHT22;553;51.038;7.216;2024-02-15T05:37:38;12.20;99.90
1129;DHT22;553;51.038;7.216;2024-02-15T05:40:05;12.20;99.90
1129;DHT22;553;51.038;7.216;2024-02-15T05:42:33;12.20;99.90
1129;DHT22;553;51.038;7.216;2024-02-15T05:47:59;12.20;99.90
1129;DHT22;553;51.038;7.216;2024-02-15T05:50:26;12.20;99.90
1129;DHT22;553;51.038;7.216;2024-02-15T05:52:55;12.20;99.90
1129;DHT22;553;51.038;7.216;2024-02-15T05:55:24;12.20;99.90
1129;DHT22;553;51.038;7.216;2024-02-15T05:57:53;12.20;99.90
1129;DHT22;553;51.038;7.216;2024-02-15T06:00:20;12.20;99.90
1129;DHT22;553;51.038;7.216;2024-02-15T06:02:49;12.20;99.90
1129;DHT22;553;51.038;7.216;2024-02-15T06:05:18;12.20;99.90
1129;DHT22;553;51.038;7.216;2024-02-15T06:07:44;12.20;99.90
1129;DHT22;553;51.038;7.216;2024-02-15T06:10:13;12.20;99.90
1129;DHT22;553;51.038;7.216;2024-02-15T06:12:41;12.20;99.90
1129;DHT22;553;51.038;7.216;2024-02-15T06:15:08;12.20;99.90
1129;DHT22;553;51.038;7.216;2024-02-15T06:17:41;12.20;99.90
1129;DHT22;553;51.038;7.216;2024-02-15T06:20:14;12.10;99.90
1129;DHT22;553;51.038;7.216;2024-02-15T06:22:41;12.00;99.90
1129;DHT22;553;51.038;7.216;2024-02-15T06:25:08;12.10;99.90
1129;DHT22;553;51.038;7.216;2024-02-15T06:27:37;12.10;99.90
1129;DHT22;553;51.038;7.216;2024-02-15T06:30:08;12.10;99.90
1129;DHT22;553;51.038;7.216;2024-02-15T06:32:54;12.20;99.90
1129;DHT22;553;51.038;7.216;2024-02-15T06:35:39;12.10;99.90
1129;DHT22;553;51.038;7.216;2024-02-15T06:38:25;12.20;99.90
1129;DHT22;553;51.038;7.216;2024-02-15T06:41:11;12.10;99.90
1129;DHT22;553;51.038;7.216;2024-02-15T06:43:38;12.10;99.90
1129;DHT22;553;51.038;7.216;2024-02-15T06:46:07;12.20;99.90
1129;DHT22;553;51.038;7.216;2024-02-15T06:48:34;12.20;99.90
1129;DHT22;553;51.038;7.216;2024-02-15T06:51:03;12.20;99.90
1129;DHT22;553;51.038;7.216;2024-02-15T06:53:30;12.10;99.90
1129;DHT22;553;51.038;7.216;2024-02-15T06:55:57;12.10;99.90
1129;DHT22;553;51.038;7.216;2024-02-15T06:58:23;12.10;99.90
1129;DHT22;553;51.038;7.216;2024-02-15T07:00:51;12.10;99.90
1129;DHT22;553;51.038;7.216;2024-02-15T07:03:18;12.10;99.90
1129;DHT22;553;51.038;7.216;2024-02-15T07:05:44;12.20;99.90
1129;DHT22;553;51.038;7.216;2024-02-15T07:08:12;12.20;99.90
1129;DHT22;553;51.038;7.216;2024-02-15T07:10:41;12.20;99.90
1129;DHT22;553;51.038;7.216;2024-02-15T07:13:08;12.20;99.90
1129;DHT22;553;51.038;7.216;2024-02-15T07:15:34;12.20;99.90
1129;DHT22;553;51.038;7.216;2024-02-15T07:18:05;12.10;99.90
1129;DHT22;553;51.038;7.216;2024-02-15T07:20:36;12.10;99.90
1129;DHT22;553;51.038;7.216;2024-02-15T07:23:03;12.10;99.90
1129;DHT22;553;51.038;7.216;2024-02-15T07:25:32;12.10;99.90
1129;DHT22;553;51.038;7.216;2024-02-15T07:27:58;12.00;99.90
1129;DHT22;553;51.038;7.216;2024-02-15T07:30:25;12.00;99.90
1129;DHT22;553;51.038;7.216;2024-02-15T07:32:52;12.00;99.90
1129;DHT22;553;51.038;7.216;2024-02-15T07:35:19;12.00;99.90
1129;DHT22;553;51.038;7.216;2024-02-15T07:37:53;12.00;99.90
1129;DHT22;553;51.038;7.216;2024-02-15T07:40:22;12.00;99.90
1129;DHT22;553;51.038;7.216;2024-02-15T07:42:49;12.10;99.90
1129;DHT22;553;51.038;7.216;2024-02-15T07:45:16;12.10;99.90
1129;DHT22;553;51.038;7.216;2024-02-15T07:47:44;12.20;99.90
1129;DHT22;553;51.038;7.216;2024-02-15T07:50:17;12.20;99.90
1129;DHT22;553;51.038;7.216;2024-02-15T07:52:47;12.20;99.90
1129;DHT22;553;51.038;7.216;2024-02-15T07:55:15;12.20;99.90
1129;DHT22;553;51.038;7.216;2024-02-15T07:57:42;12.20;99.90
1129;DHT22;553;51.038;7.216;2024-02-15T08:00:09;12.20;99.90
1129;DHT22;553;51.038;7.216;2024-02-15T08:02:38;12.10;99.90
1129;DHT22;553;51.038;7.216;2024-02-15T08:05:07;12.10;99.90
1129;DHT22;553;51.038;7.216;2024-02-15T08:07:41;12.10;99.90
1129;DHT22;553;51.038;7.216;2024-02-15T08:10:08;12.10;99.90
1129;DHT22;553;51.038;7.216;2024-02-15T08:12:45;12.10;99.90
1129;DHT22;553;51.038;7.216;2024-02-15T08:15:13;12.10;99.90
1129;DHT22;553;51.038;7.216;2024-02-15T08:17:40;12.10;99.90
1129;DHT22;553;51.038;7.216;2024-02-15T08:20:09;12.10;99.90
1129;DHT22;553;51.038;7.216;2024-02-15T08:22:37;12.10;99.90
1129;DHT22;553;51.038;7.216;2024-02-15T08:25:12;12.10;99.90
1129;DHT22;553;51.038;7.216;2024-02-15T08:27:43;12.20;99.90
1129;DHT22;553;51.038;7.216;2024-02-15T08:30:12;12.20;99.90
1129;DHT22;553;51.038;7.216;2024-02-15T08:32:40;12.10;99.90
1129;DHT22;553;51.038;7.216;2024-02-15T08:35:09;12.10;99.90
1129;DHT22;553;51.038;7.216;2024-02-15T08:37:37;12.10;99.90
1129;DHT22;553;51.038;7.216;2024-02-15T08:40:08;12.10;99.90
1129;DHT22;553;51.038;7.216;2024-02-15T08:42:41;12.10;99.90
1129;DHT22;553;51.038;7.216;2024-02-15T08:45:08;12.10;99.90
1129;DHT22;553;51.038;7.216;2024-02-15T08:47:40;12.10;99.90
1129;DHT22;553;51.038;7.216;2024-02-15T08:50:08;12.00;99.90
1129;DHT22;553;51.038;7.216;2024-02-15T08:52:39;12.10;99.90
1129;DHT22;553;51.038;7.216;2024-02-15T08:55:07;12.20;99.90
1129;DHT22;553;51.038;7.216;2024-02-15T08:57:36;12.20;99.90
1129;DHT22;553;51.038;7.216;2024-02-15T09:00:04;12.20;99.90
1129;DHT22;553;51.038;7.216;2024-02-15T09:02:41;12.20;99.90
1129;DHT22;553;51.038;7.216;2024-02-15T09:05:08;12.30;99.90
1129;DHT22;553;51.038;7.216;2024-02-15T09:07:36;12.30;99.90
1129;DHT22;553;51.038;7.216;2024-02-15T09:10:08;12.30;99.90
1129;DHT22;553;51.038;7.216;2024-02-15T09:12:37;12.20;99.90
1129;DHT22;553;51.038;7.216;2024-02-15T09:15:08;12.20;99.90
1129;DHT22;553;51.038;7.216;2024-02-15T09:17:35;12.20;99.90
1129;DHT22;553;51.038;7.216;2024-02-15T09:20:10;12.30;99.90
1129;DHT22;553;51.038;7.216;2024-02-15T09:22:49;12.20;99.90
1129;DHT22;553;51.038;7.216;2024-02-15T09:25:16;12.20;99.90
1129;DHT22;553;51.038;7.216;2024-02-15T09:27:44;12.20;99.90
1129;DHT22;553;51.038;7.216;2024-02-15T09:30:12;12.30;99.90
1129;DHT22;553;51.038;7.216;2024-02-15T09:32:39;12.30;99.90
1129;DHT22;553;51.038;7.216;2024-02-15T09:35:07;12.30;99.90
1129;DHT22;553;51.038;7.216;2024-02-15T09:37:35;12.30;99.90
1129;DHT22;553;51.038;7.216;2024-02-15T09:40:08;12.30;99.90
1129;DHT22;553;51.038;7.216;2024-02-15T09:42:38;12.40;99.90
1129;DHT22;553;51.038;7.216;2024-02-15T09:45:07;12.40;99.90
1129;DHT22;553;51.038;7.216;2024-02-15T09:47:38;12.50;99.90
1129;DHT22;553;51.038;7.216;2024-02-15T09:50:13;12.60;99.90
1129;DHT22;553;51.038;7.216;2024-02-15T09:52:50;12.60;99.90
1129;DHT22;553;51.038;7.216;2024-02-15T09:55:18;12.50;99.90
1129;DHT22;553;51.038;7.216;2024-02-15T09:57:46;12.50;99.90
1129;DHT22;553;51.038;7.216;2024-02-15T10:00:13;12.50;99.90
1129;DHT22;553;51.038;7.216;2024-02-15T10:02:43;12.50;99.90
1129;DHT22;553;51.038;7.216;2024-02-15T10:05:12;12.60;99.90
1129;DHT22;553;51.038;7.216;2024-02-15T10:07:39;12.70;99.90
1129;DHT22;553;51.038;7.216;2024-02-15T10:10:23;12.70;99.90
1129;DHT22;553;51.038;7.216;2024-02-15T10:12:53;12.80;99.90
1129;DHT22;553;51.038;7.216;2024-02-15T10:15:30;12.90;99.90
1129;DHT22;553;51.038;7.216;2024-02-15T10:18:01;12.90;99.90
1129;DHT22;553;51.038;7.216;2024-02-15T10:20:29;13.10;99.90
1129;DHT22;553;51.038;7.216;2024-02-15T10:25:29;13.20;99.90
1129;DHT22;553;51.038;7.216;2024-02-15T10:28:03;13.20;99.90
1129;DHT22;553;51.038;7.216;2024-02-15T10:30:40;13.30;99.90
1129;DHT22;553;51.038;7.216;2024-02-15T10:33:28;13.30;99.90
1129;DHT22;553;51.038;7.216;2024-02-15T10:36:06;13.20;99.90
1129;DHT22;553;51.038;7.216;2024-02-15T10:38:37;13.10;99.90
1129;DHT22;553;51.038;7.216;2024-02-15T10:41:06;13.20;99.90
1129;DHT22;553;51.038;7.216;2024-02-15T10:43:33;13.20;99.90
1129;DHT22;553;51.038;7.216;2024-02-15T10:46:02;13.20;99.90
1129;DHT22;553;51.038;7.216;2024-02-15T10:48:29;13.30;99.90
1129;DHT22;553;51.038;7.216;2024-02-15T10:50:59;13.30;99.90
1129;DHT22;553;51.038;7.216;2024-02-15T10:53:30;13.30;99.90
1129;DHT22;553;51.038;7.216;2024-02-15T10:56:21;13.30;99.90
1129;DHT22;553;51.038;7.216;2024-02-15T10:58:58;13.40;99.90
1129;DHT22;553;51.038;7.216;2024-02-15T11:01:28;13.40;99.90
1129;DHT22;553;51.038;7.216;2024-02-15T11:04:07;13.60;99.90
1129;DHT22;553;51.038;7.216;2024-02-15T11:06:35;13.70;99.90
1129;DHT22;553;51.038;7.216;2024-02-15T11:09:05;13.70;99.90
1129;DHT22;553;51.038;7.216;2024-02-15T11:11:34;13.80;99.90
1129;DHT22;553;51.038;7.216;2024-02-15T11:14:23;13.90;99.90
1129;DHT22;553;51.038;7.216;2024-02-15T11:16:50;13.80;99.90
1129;DHT22;553;51.038;7.216;2024-02-15T11:22:08;13.80;99.90
1129;DHT22;553;51.038;7.216;2024-02-15T11:24:37;13.90;99.90
1129;DHT22;553;51.038;7.216;2024-02-15T11:27:11;13.90;99.90
1129;DHT22;553;51.038;7.216;2024-02-15T11:29:52;14.00;99.90
1129;DHT22;553;51.038;7.216;2024-02-15T11:32:43;13.90;99.90
1129;DHT22;553;51.038;7.216;2024-02-15T11:35:13;14.00;99.90
1129;DHT22;553;51.038;7.216;2024-02-15T11:43:08;14.30;99.90
1129;DHT22;553;51.038;7.216;2024-02-15T11:45:36;14.60;99.90
1129;DHT22;553;51.038;7.216;2024-02-15T11:48:11;14.60;99.90
1129;DHT22;553;51.038;7.216;2024-02-15T11:50:40;14.60;99.90
1129;DHT22;553;51.038;7.216;2024-02-15T11:53:08;14.60;99.90
1129;DHT22;553;51.038;7.216;2024-02-15T11:55:40;14.60;99.90
1129;DHT22;553;51.038;7.216;2024-02-15T11:58:09;14.60;99.90
1129;DHT22;553;51.038;7.216;2024-02-15T12:00:37;14.60;99.90
1129;DHT22;553;51.038;7.216;2024-02-15T12:03:24;14.70;99.90
1129;DHT22;553;51.038;7.216;2024-02-15T12:06:30;14.70;99.90
1129;DHT22;553;51.038;7.216;2024-02-15T12:09:18;14.70;99.90
1129;DHT22;553;51.038;7.216;2024-02-15T12:12:05;14.70;99.90
1129;DHT22;553;51.038;7.216;2024-02-15T12:15:02;14.70;99.90
1129;DHT22;553;51.038;7.216;2024-02-15T12:17:48;14.80;99.90
1129;DHT22;553;51.038;7.216;2024-02-15T12:20:33;14.80;99.90
1129;DHT22;553;51.038;7.216;2024-02-15T12:23:01;14.70;99.90
1129;DHT22;553;51.038;7.216;2024-02-15T12:25:28;14.80;99.90
1129;DHT22;553;51.038;7.216;2024-02-15T12:27:56;14.70;99.90
1129;DHT22;553;51.038;7.216;2024-02-15T12:30:23;14.70;99.90
1129;DHT22;553;51.038;7.216;2024-02-15T12:32:52;14.70;99.90
1129;DHT22;553;51.038;7.216;2024-02-15T12:35:35;14.60;99.90
1129;DHT22;553;51.038;7.216;2024-02-15T12:38:03;14.70;99.90
1129;DHT22;553;51.038;7.216;2024-02-15T12:40:35;14.70;99.90
1129;DHT22;553;51.038;7.216;2024-02-15T12:43:05;14.70;99.90
1129;DHT22;553;51.038;7.216;2024-02-15T12:45:32;14.70;99.90
1129;DHT22;553;51.038;7.216;2024-02-15T12:48:04;14.70;99.90
1129;DHT22;553;51.038;7.216;2024-02-15T12:50:33;14.70;99.90
1129;DHT22;553;51.038;7.216;2024-02-15T12:53:04;14.80;99.90
1129;DHT22;553;51.038;7.216;2024-02-15T12:55:33;14.80;99.90
1129;DHT22;553;51.038;7.216;2024-02-15T12:58:03;14.90;99.90
1129;DHT22;553;51.038;7.216;2024-02-15T13:00:31;14.80;99.90
1129;DHT22;553;51.038;7.216;2024-02-15T13:03:02;14.80;99.90
1129;DHT22;553;51.038;7.216;2024-02-15T13:05:31;14.90;99.90
1129;DHT22;553;51.038;7.216;2024-02-15T13:07:58;14.90;99.90
1129;DHT22;553;51.038;7.216;2024-02-15T13:10:25;14.90;99.90
1129;DHT22;553;51.038;7.216;2024-02-15T13:12:52;15.00;99.90
1129;DHT22;553;51.038;7.216;2024-02-15T13:15:19;15.10;99.90
1129;DHT22;553;51.038;7.216;2024-02-15T13:17:48;15.20;99.90
1129;DHT22;553;51.038;7.216;2024-02-15T13:20:22;15.20;99.90
1129;DHT22;553;51.038;7.216;2024-02-15T13:23:04;15.20;99.90
1129;DHT22;553;51.038;7.216;2024-02-15T13:25:50;15.30;99.90
1129;DHT22;553;51.038;7.216;2024-02-15T13:28:17;15.30;99.90
1129;DHT22;553;51.038;7.216;2024-02-15T13:30:45;15.40;99.90
1129;DHT22;553;51.038;7.216;2024-02-15T13:33:13;15.40;99.90
1129;DHT22;553;51.038;7.216;2024-02-15T13:35:44;15.50;99.90
1129;DHT22;553;51.038;7.216;2024-02-15T13:38:12;15.40;99.90
1129;DHT22;553;51.038;7.216;2024-02-15T13:40:42;15.50;99.90
1129;DHT22;553;51.038;7.216;2024-02-15T13:43:08;15.40;99.90
1129;DHT22;553;51.038;7.216;2024-02-15T13:45:40;15.40;99.90
1129;DHT22;553;51.038;7.216;2024-02-15T13:48:08;15.50;99.90
1129;DHT22;553;51.038;7.216;2024-02-15T13:50:37;15.50;99.90
1129;DHT22;553;51.038;7.216;2024-02-15T13:53:05;15.50;99.90
1129;DHT22;553;51.038;7.216;2024-02-15T13:55:33;15.50;99.90
1129;DHT22;553;51.038;7.216;2024-02-15T13:58:00;15.50;99.90
1129;DHT22;553;51.038;7.216;2024-02-15T14:00:28;15.50;99.90
1129;DHT22;553;51.038;7.216;2024-02-15T14:03:02;15.50;99.90
1129;DHT22;553;51.038;7.216;2024-02-15T14:05:31;15.50;99.90
1129;DHT22;553;51.038;7.216;2024-02-15T14:08:01;15.50;99.90
1129;DHT22;553;51.038;7.216;2024-02-15T14:10:29;15.50;99.90
1129;DHT22;553;51.038;7.216;2024-02-15T14:12:56;15.40;99.90
1129;DHT22;553;51.038;7.216;2024-02-15T14:15:29;15.50;99.90
1129;DHT22;553;51.038;7.216;2024-02-15T14:17:56;15.60;99.90
1129;DHT22;553;51.038;7.216;2024-02-15T14:20:24;15.60;99.90
1129;DHT22;553;51.038;7.216;2024-02-15T14:22:51;15.60;99.90
1129;DHT22;553;51.038;7.216;2024-02-15T14:25:27;15.60;99.90
1129;DHT22;553;51.038;7.216;2024-02-15T14:27:54;15.70;99.90
1129;DHT22;553;51.038;7.216;2024-02-15T14:30:21;15.70;99.90
1129;DHT22;553;51.038;7.216;2024-02-15T14:33:06;15.80;99.90
1129;DHT22;553;51.038;7.216;2024-02-15T14:35:46;15.80;99.90
1129;DHT22;553;51.038;7.216;2024-02-15T14:38:14;15.80;99.90
1129;DHT22;553;51.038;7.216;2024-02-15T14:40:46;15.80;99.90
1129;DHT22;553;51.038;7.216;2024-02-15T14:43:17;15.80;99.90
1129;DHT22;553;51.038;7.216;2024-02-15T14:45:47;15.70;99.90
1129;DHT22;553;51.038;7.216;2024-02-15T14:48:15;15.80;99.90
1129;DHT22;553;51.038;7.216;2024-02-15T14:50:46;15.80;99.90
1129;DHT22;553;51.038;7.216;2024-02-15T14:53:13;15.80;99.90
1129;DHT22;553;51.038;7.216;2024-02-15T14:55:42;15.80;99.90
1129;DHT22;553;51.038;7.216;2024-02-15T14:58:13;15.80;99.90
1129;DHT22;553;51.038;7.216;2024-02-15T15:00:43;15.80;99.90
1129;DHT22;553;51.038;7.216;2024-02-15T15:03:12;15.80;99.90
1129;DHT22;553;51.038;7.216;2024-02-15T15:05:40;15.70;99.90
1129;DHT22;553;51.038;7.216;2024-02-15T15:08:26;15.80;99.90
1129;DHT22;553;51.038;7.216;2024-02-15T15:11:12;15.80;99.90
1129;DHT22;553;51.038;7.216;2024-02-15T15:13:58;15.70;99.90
1129;DHT22;553;51.038;7.216;2024-02-15T15:16:25;15.70;99.90
1129;DHT22;553;51.038;7.216;2024-02-15T15:18:52;15.70;99.90
1129;DHT22;553;51.038;7.216;2024-02-15T15:21:20;15.70;99.90
1129;DHT22;553;51.038;7.216;2024-02-15T15:23:50;15.70;99.90
1129;DHT22;553;51.038;7.216;2024-02-15T15:26:19;15.70;99.90
1129;DHT22;553;51.038;7.216;2024-02-15T15:28:46;15.70;99.90
1129;DHT22;553;51.038;7.216;2024-02-15T15:31:14;15.60;99.90
1129;DHT22;553;51.038;7.216;2024-02-15T15:33:47;15.60;99.90
1129;DHT22;553;51.038;7.216;2024-02-15T15:36:15;15.60;99.90
1129;DHT22;553;51.038;7.216;2024-02-15T15:38:44;15.60;99.90
1129;DHT22;553;51.038;7.216;2024-02-15T15:41:12;15.50;99.90
1129;DHT22;553;51.038;7.216;2024-02-15T15:43:39;15.60;99.90
1129;DHT22;553;51.038;7.216;2024-02-15T15:46:06;15.50;99.90
1129;DHT22;553;51.038;7.216;2024-02-15T15:48:32;15.50;99.90
1129;DHT22;553;51.038;7.216;2024-02-15T15:51:00;15.50;99.90
1129;DHT22;553;51.038;7.216;2024-02-15T15:53:32;15.50;99.90
1129;DHT22;553;51.038;7.216;2024-02-15T15:56:01;15.50;99.90
1129;DHT22;553;51.038;7.216;2024-02-15T15:58:27;15.40;99.90
1129;DHT22;553;51.038;7.216;2024-02-15T16:00:54;15.50;99.90
1129;DHT22;553;51.038;7.216;2024-02-15T16:03:21;15.40;99.90
1129;DHT22;553;51.038;7.216;2024-02-15T16:05:50;15.40;99.90
1129;DHT22;553;51.038;7.216;2024-02-15T16:08:17;15.30;99.90
1129;DHT22;553;51.038;7.216;2024-02-15T16:10:44;15.30;99.90
1129;DHT22;553;51.038;7.216;2024-02-15T16:13:12;15.30;99.90
1129;DHT22;553;51.038;7.216;2024-02-15T16:15:39;15.30;99.90
1129;DHT22;553;51.038;7.216;2024-02-15T16:18:10;15.20;99.90
1129;DHT22;553;51.038;7.216;2024-02-15T16:20:37;15.20;99.90
1129;DHT22;553;51.038;7.216;2024-02-15T16:23:05;15.20;99.90
1129;DHT22;553;51.038;7.216;2024-02-15T16:25:31;15.10;99.90
1129;DHT22;553;51.038;7.216;2024-02-15T16:27:58;15.10;99.90
1129;DHT22;553;51.038;7.216;2024-02-15T16:30:27;15.10;99.90
1129;DHT22;553;51.038;7.216;2024-02-15T16:32:54;15.00;99.90
1129;DHT22;553;51.038;7.216;2024-02-15T16:35:21;14.90;99.90
1129;DHT22;553;51.038;7.216;2024-02-15T16:37:49;14.90;99.90
1129;DHT22;553;51.038;7.216;2024-02-15T16:40:16;14.90;99.90
1129;DHT22;553;51.038;7.216;2024-02-15T16:42:44;14.90;99.90
1129;DHT22;553;51.038;7.216;2024-02-15T16:45:15;14.80;99.90
1129;DHT22;553;51.038;7.216;2024-02-15T16:47:45;14.80;99.90